Time;durP1;ratioP1;P1;durP2;ratioP2;P2;SDS_P1;SDS_P2;PMS_P1;PMS_P2;Temp;Humidity;BMP_temperature;BMP_pressure;BME280_temperature;BME280_humidity;BME280_pressure;Samples;Min_cycle;Max_cycle;Signal;HPM_P1;HPM_P2
2022/12/02 00:01:41;;;;;;;71.47;42.57;;;;;;;;;;4980651;28;20213;-78
2022/12/02 00:04:20;;;;;;;69.37;40.50;;;;;;;;;;4997102;28;20186;-78
2022/12/02 00:06:46;;;;;;;69.20;39.73;;;;;;;;;;4997176;28;20185;-79
2022/12/02 00:09:16;;;;;;;66.90;39.17;;;;;;;;;;4992876;28;20245;-79
2022/12/02 00:11:44;;;;;;;65.97;40.73;;;;;;;;;;4980159;28;20313;-79
2022/12/02 00:14:16;;;;;;;67.67;39.60;;;;;;;;;;4980623;28;20244;-79
2022/12/02 00:16:42;;;;;;;62.77;39.20;;;;;;;;;;4997563;28;20174;-79
2022/12/02 00:19:08;;;;;;;67.00;39.60;;;;;;;;;;4980391;28;20233;-79
2022/12/02 00:21:34;;;;;;;64.53;39.87;;;;;;;;;;4997684;28;20182;-85
2022/12/02 00:24:00;;;;;;;67.23;40.57;;;;;;;;;;4964555;28;20232;-86
2022/12/02 00:26:26;;;;;;;70.13;41.47;;;;;;;;;;5011983;28;20189;-85
2022/12/02 00:28:52;;;;;;;69.27;40.90;;;;;;;;;;4983769;28;20249;-85
2022/12/02 00:31:18;;;;;;;66.43;40.30;;;;;;;;;;4983340;28;20189;-85
2022/12/02 00:33:44;;;;;;;69.50;41.20;;;;;;;;;;4999648;28;20185;-85
2022/12/02 00:36:10;;;;;;;63.50;39.00;;;;;;;;;;4999652;28;20188;-86
2022/12/02 00:38:36;;;;;;;67.83;39.70;;;;;;;;;;4983447;28;20220;-86
2022/12/02 00:41:02;;;;;;;67.90;40.23;;;;;;;;;;4999736;28;20182;-86
2022/12/02 00:46:30;;;;;;;71.63;41.37;;;;;;;;;;5002455;28;20271;-85
2022/12/02 00:48:56;;;;;;;66.83;40.37;;;;;;;;;;5015995;28;20181;-85
2022/12/02 00:51:23;;;;;;;69.63;40.90;;;;;;;;;;5016821;28;20252;-85
2022/12/02 00:53:48;;;;;;;64.83;39.03;;;;;;;;;;4999543;28;20189;-85
2022/12/02 00:56:15;;;;;;;67.73;40.90;;;;;;;;;;4983522;28;20191;-80
2022/12/02 00:58:41;;;;;;;65.40;40.80;;;;;;;;;;4998928;28;20212;-79
2022/12/02 01:01:07;;;;;;;68.43;39.83;;;;;;;;;;4999005;28;20177;-79
2022/12/02 01:03:33;;;;;;;66.23;40.13;;;;;;;;;;4982928;28;20181;-79
2022/12/02 01:06:00;;;;;;;69.93;39.67;;;;;;;;;;4999335;28;20247;-79
2022/12/02 01:08:26;;;;;;;73.63;41.30;;;;;;;;;;4999008;28;20216;-79
2022/12/02 01:10:55;;;;;;;69.43;40.23;;;;;;;;;;4998719;28;20193;-79
2022/12/02 01:13:22;;;;;;;67.70;40.13;;;;;;;;;;4983072;28;20241;-80
2022/12/02 01:15:48;;;;;;;73.80;41.90;;;;;;;;;;4982756;28;20212;-80
2022/12/02 01:18:14;;;;;;;68.37;40.47;;;;;;;;;;4998903;28;20209;-80
2022/12/02 01:20:40;;;;;;;67.73;41.07;;;;;;;;;;4998734;28;20185;-85
2022/12/02 01:23:06;;;;;;;67.17;40.53;;;;;;;;;;4982528;28;20248;-86
2022/12/02 01:25:32;;;;;;;70.37;41.53;;;;;;;;;;4982403;28;20182;-85
2022/12/02 01:27:58;;;;;;;71.23;39.53;;;;;;;;;;4982908;28;20185;-80
2022/12/02 01:30:24;;;;;;;66.83;39.97;;;;;;;;;;5016079;28;20268;-80
2022/12/02 01:32:50;;;;;;;66.33;39.00;;;;;;;;;;4998877;28;20267;-80
2022/12/02 01:35:16;;;;;;;66.20;39.93;;;;;;;;;;4998414;28;20189;-80
2022/12/02 01:37:42;;;;;;;65.47;39.30;;;;;;;;;;4982313;28;20307;-80
2022/12/02 01:40:10;;;;;;;66.23;40.00;;;;;;;;;;5015638;28;20217;-79
2022/12/02 01:42:36;;;;;;;64.57;38.40;;;;;;;;;;5015764;28;20174;-79
2022/12/02 01:45:02;;;;;;;64.10;39.13;;;;;;;;;;5015704;28;20233;-78
2022/12/02 01:47:28;;;;;;;69.43;39.53;;;;;;;;;;4998185;28;20218;-78
2022/12/02 01:49:55;;;;;;;67.30;38.50;;;;;;;;;;4998175;28;20205;-78
2022/12/02 01:52:21;;;;;;;67.37;38.53;;;;;;;;;;4982238;28;20188;-78
2022/12/02 01:54:47;;;;;;;69.30;39.00;;;;;;;;;;4998152;28;20177;-78
2022/12/02 01:57:14;;;;;;;70.80;39.87;;;;;;;;;;4978725;28;20190;-78
2022/12/02 01:59:40;;;;;;;66.00;37.70;;;;;;;;;;4962438;28;20288;-78
2022/12/02 02:02:25;;;;;;;64.37;37.93;;;;;;;;;;4967353;28;20181;-79
2022/12/02 02:04:52;;;;;;;67.33;39.83;;;;;;;;;;4994685;28;20184;-79
2022/12/02 02:07:18;;;;;;;70.43;39.37;;;;;;;;;;5004505;28;20185;-79
2022/12/02 02:09:44;;;;;;;66.30;38.13;;;;;;;;;;4998201;28;20198;-79
2022/12/02 02:12:10;;;;;;;67.57;37.50;;;;;;;;;;4977760;28;20237;-79
2022/12/02 02:14:36;;;;;;;68.07;36.43;;;;;;;;;;4988378;28;20192;-79
2022/12/02 02:17:02;;;;;;;65.93;35.83;;;;;;;;;;4997737;28;20181;-79
2022/12/02 02:19:28;;;;;;;59.93;35.53;;;;;;;;;;4997758;28;20235;-78
2022/12/02 02:21:56;;;;;;;60.40;34.07;;;;;;;;;;4997700;28;20188;-78
2022/12/02 02:24:23;;;;;;;63.30;34.90;;;;;;;;;;4997546;28;20181;-78
2022/12/02 02:26:49;;;;;;;59.23;33.10;;;;;;;;;;4978392;28;20208;-78
2022/12/02 02:29:15;;;;;;;57.63;32.40;;;;;;;;;;4981251;28;20288;-78
2022/12/02 02:31:41;;;;;;;58.93;31.00;;;;;;;;;;4997269;28;20197;-78
2022/12/02 02:34:07;;;;;;;52.77;28.93;;;;;;;;;;4997789;28;20178;-78
2022/12/02 02:36:34;;;;;;;53.30;29.23;;;;;;;;;;4997426;28;20185;-85
2022/12/02 02:39:00;;;;;;;50.97;29.63;;;;;;;;;;4997448;28;20252;-85
2022/12/02 02:41:26;;;;;;;50.77;28.60;;;;;;;;;;5014887;28;20173;-85
2022/12/02 02:43:53;;;;;;;52.17;28.07;;;;;;;;;;4997124;28;20239;-85
2022/12/02 02:46:19;;;;;;;50.73;28.53;;;;;;;;;;4997573;28;20185;-85
2022/12/02 02:48:45;;;;;;;49.13;28.47;;;;;;;;;;4979457;28;20189;-85
2022/12/02 02:51:12;;;;;;;49.17;28.47;;;;;;;;;;4977581;28;20186;-78
2022/12/02 02:53:38;;;;;;;52.47;29.33;;;;;;;;;;4972362;28;20252;-78
2022/12/02 02:56:04;;;;;;;51.20;28.93;;;;;;;;;;4999915;28;20256;-78
2022/12/02 02:58:34;;;;;;;49.83;27.73;;;;;;;;;;4996875;28;20217;-78
2022/12/02 03:01:08;;;;;;;52.10;28.03;;;;;;;;;;5013507;28;20263;-78
2022/12/02 03:03:35;;;;;;;50.53;28.03;;;;;;;;;;4997359;28;20181;-78
2022/12/02 03:06:02;;;;;;;49.77;27.33;;;;;;;;;;4997044;28;20173;-79
2022/12/02 03:08:30;;;;;;;52.13;28.03;;;;;;;;;;4970021;28;20190;-85
2022/12/02 03:10:58;;;;;;;49.90;27.77;;;;;;;;;;4982321;28;20190;-85
2022/12/02 03:13:24;;;;;;;50.43;28.33;;;;;;;;;;5000088;28;20263;-85
2022/12/02 03:15:50;;;;;;;49.37;27.57;;;;;;;;;;4988906;28;20185;-85
2022/12/02 03:18:19;;;;;;;46.70;27.20;;;;;;;;;;5014231;28;20209;-84
2022/12/02 03:20:45;;;;;;;49.07;28.10;;;;;;;;;;4996056;28;20185;-79
2022/12/02 03:23:12;;;;;;;49.10;27.33;;;;;;;;;;5008497;28;20178;-79
2022/12/02 03:25:38;;;;;;;54.77;28.57;;;;;;;;;;4982089;28;20185;-78
2022/12/02 03:28:04;;;;;;;50.53;29.37;;;;;;;;;;4991490;28;20186;-78
2022/12/02 03:30:30;;;;;;;54.47;28.07;;;;;;;;;;4977847;28;20185;-78
2022/12/02 03:32:57;;;;;;;48.77;27.57;;;;;;;;;;4964995;28;20200;-78
2022/12/02 03:35:23;;;;;;;51.00;27.60;;;;;;;;;;4996931;28;20273;-78
2022/12/02 03:37:49;;;;;;;48.67;26.87;;;;;;;;;;4981066;28;20217;-78
2022/12/02 03:40:15;;;;;;;49.93;27.67;;;;;;;;;;4980584;28;20182;-78
2022/12/02 03:42:42;;;;;;;49.10;27.70;;;;;;;;;;4997292;28;20182;-79
2022/12/02 03:45:08;;;;;;;49.13;27.87;;;;;;;;;;4996885;28;20247;-79
2022/12/02 03:47:34;;;;;;;49.77;27.67;;;;;;;;;;4980552;28;20193;-85
2022/12/02 03:50:01;;;;;;;47.83;28.53;;;;;;;;;;4980503;28;20188;-84
2022/12/02 03:52:28;;;;;;;54.07;29.43;;;;;;;;;;5014161;28;20174;-85
2022/12/02 03:54:54;;;;;;;52.10;29.03;;;;;;;;;;4996321;28;20209;-85
2022/12/02 03:57:20;;;;;;;51.83;28.30;;;;;;;;;;4980286;28;20342;-78
2022/12/02 03:59:46;;;;;;;51.13;29.60;;;;;;;;;;4980718;28;20188;-79
2022/12/02 04:02:12;;;;;;;55.03;29.70;;;;;;;;;;4980445;28;20181;-79
2022/12/02 04:04:38;;;;;;;51.50;29.40;;;;;;;;;;4996866;28;20189;-79
2022/12/02 04:07:04;;;;;;;53.07;29.40;;;;;;;;;;4996541;28;20178;-79
2022/12/02 04:09:30;;;;;;;50.10;29.40;;;;;;;;;;4996380;28;20169;-79
2022/12/02 04:11:56;;;;;;;49.93;26.80;;;;;;;;;;4996947;28;20229;-79
2022/12/02 04:14:22;;;;;;;48.00;27.00;;;;;;;;;;4980249;28;20204;-79
2022/12/02 04:16:48;;;;;;;48.83;26.73;;;;;;;;;;4980191;28;20186;-79
2022/12/02 04:19:14;;;;;;;52.77;27.07;;;;;;;;;;4976757;28;20213;-80
2022/12/02 04:21:40;;;;;;;47.97;26.27;;;;;;;;;;4976888;28;20175;-80
2022/12/02 04:24:07;;;;;;;47.47;25.70;;;;;;;;;;4978095;28;20209;-80
2022/12/02 04:26:33;;;;;;;44.80;25.20;;;;;;;;;;4988437;28;20248;-80
2022/12/02 04:28:59;;;;;;;45.27;25.30;;;;;;;;;;5000157;28;20279;-80
2022/12/02 04:31:25;;;;;;;45.10;24.60;;;;;;;;;;5000000;28;20239;-80
2022/12/02 04:33:51;;;;;;;43.43;24.10;;;;;;;;;;4999471;28;20193;-80
2022/12/02 04:36:17;;;;;;;43.60;25.00;;;;;;;;;;4980492;28;20208;-80
2022/12/02 04:38:42;;;;;;;43.73;25.63;;;;;;;;;;4982250;28;20296;-79
2022/12/02 04:41:08;;;;;;;45.40;26.00;;;;;;;;;;4999460;28;20182;-79
2022/12/02 04:43:34;;;;;;;42.10;24.83;;;;;;;;;;4999858;28;20192;-79
2022/12/02 04:46:00;;;;;;;44.97;24.10;;;;;;;;;;4999563;28;20174;-79
2022/12/02 04:48:26;;;;;;;46.27;24.83;;;;;;;;;;4983318;28;20186;-79
2022/12/02 04:50:52;;;;;;;41.97;22.90;;;;;;;;;;5016585;28;20185;-79
2022/12/02 04:53:19;;;;;;;43.00;24.43;;;;;;;;;;5016657;28;20174;-79
2022/12/02 04:55:45;;;;;;;42.77;24.57;;;;;;;;;;5013256;28;20235;-79
2022/12/02 04:58:12;;;;;;;41.60;23.27;;;;;;;;;;4999227;28;20224;-79
2022/12/02 05:00:38;;;;;;;40.47;23.23;;;;;;;;;;4999124;28;20182;-80
2022/12/02 05:03:04;;;;;;;41.00;23.73;;;;;;;;;;5015395;28;20181;-80
2022/12/02 05:05:30;;;;;;;36.87;22.27;;;;;;;;;;4987403;28;20193;-79
2022/12/02 05:07:56;;;;;;;34.33;20.77;;;;;;;;;;4979498;28;20189;-79
2022/12/02 05:10:22;;;;;;;37.50;22.63;;;;;;;;;;4996711;28;20179;-79
2022/12/02 05:12:48;;;;;;;37.00;22.03;;;;;;;;;;4996303;28;20256;-79
2022/12/02 05:15:14;;;;;;;36.83;22.77;;;;;;;;;;4963203;28;20191;-79
2022/12/02 05:17:40;;;;;;;36.80;21.53;;;;;;;;;;4979144;28;20197;-79
2022/12/02 05:20:06;;;;;;;42.40;22.53;;;;;;;;;;5007206;28;20311;-79
2022/12/02 05:22:32;;;;;;;39.10;22.63;;;;;;;;;;5016087;28;20224;-79
2022/12/02 05:24:58;;;;;;;38.67;22.37;;;;;;;;;;4997867;28;20264;-79
2022/12/02 05:27:24;;;;;;;38.00;22.00;;;;;;;;;;4992064;28;20171;-79
2022/12/02 05:29:50;;;;;;;38.37;22.07;;;;;;;;;;4979414;28;20183;-79
2022/12/02 05:32:16;;;;;;;36.93;22.63;;;;;;;;;;4980648;28;20189;-79
2022/12/02 05:34:42;;;;;;;40.10;22.77;;;;;;;;;;5015613;28;20193;-79
2022/12/02 05:37:08;;;;;;;37.03;22.00;;;;;;;;;;4998636;28;20193;-79
2022/12/02 05:39:34;;;;;;;38.07;23.13;;;;;;;;;;4998384;28;20209;-78
2022/12/02 05:42:01;;;;;;;41.65;27.73;;;;;;;;;;5031787;22;20456;-81
2022/12/02 05:44:28;;;;;;;41.90;24.30;;;;;;;;;;5011115;28;20188;-81
2022/12/02 05:47:00;;;;;;;39.47;23.83;;;;;;;;;;4996507;28;20208;-81
2022/12/02 05:49:25;;;;;;;41.50;24.00;;;;;;;;;;4996281;28;20182;-80
2022/12/02 05:51:59;;;;;;;41.53;23.57;;;;;;;;;;4997155;28;20224;-80
2022/12/02 05:54:26;;;;;;;45.27;24.83;;;;;;;;;;5013444;28;20187;-85
2022/12/02 05:56:52;;;;;;;39.50;24.23;;;;;;;;;;5013496;28;20251;-80
2022/12/02 05:59:19;;;;;;;39.67;24.27;;;;;;;;;;4997335;28;20217;-80
2022/12/02 06:01:48;;;;;;;40.80;24.47;;;;;;;;;;5022490;28;20183;-80
2022/12/02 06:04:15;;;;;;;45.87;24.87;;;;;;;;;;5001552;28;20174;-80
2022/12/02 06:06:41;;;;;;;44.17;25.27;;;;;;;;;;5009537;28;20272;-80
2022/12/02 06:09:11;;;;;;;43.00;25.77;;;;;;;;;;5012184;28;20188;-80
2022/12/02 06:11:37;;;;;;;40.47;24.10;;;;;;;;;;5034972;28;20327;-78
2022/12/02 06:14:10;;;;;;;37.37;23.60;;;;;;;;;;5013944;28;20274;-77
2022/12/02 06:16:36;;;;;;;41.33;23.87;;;;;;;;;;5005322;28;20196;-77
2022/12/02 06:19:07;;;;;;;37.23;22.30;;;;;;;;;;4997777;28;20295;-77
2022/12/02 06:21:33;;;;;;;38.33;23.90;;;;;;;;;;5016853;28;20185;-78
2022/12/02 06:24:00;;;;;;;36.47;22.70;;;;;;;;;;5016057;28;20180;-77
2022/12/02 06:26:27;;;;;;;38.53;23.70;;;;;;;;;;5016849;28;20173;-78
2022/12/02 06:28:58;;;;;;;38.10;23.13;;;;;;;;;;5006497;28;20189;-78
2022/12/02 06:31:38;;;;;;;41.23;24.43;;;;;;;;;;4997702;28;20192;-79
2022/12/02 06:34:23;;;;;;;38.67;24.07;;;;;;;;;;5008000;28;20191;-79
2022/12/02 06:36:49;;;;;;;42.97;24.97;;;;;;;;;;5016757;28;20181;-79
2022/12/02 06:39:18;;;;;;;41.33;24.93;;;;;;;;;;5013542;28;20211;-79
2022/12/02 06:41:44;;;;;;;39.13;23.73;;;;;;;;;;5016346;28;20239;-79
2022/12/02 06:47:06;;;;;;;39.07;24.47;;;;;;;;;;5032449;28;20219;-80
2022/12/02 06:49:36;;;;;;;40.53;24.50;;;;;;;;;;5011889;28;20216;-80
2022/12/02 06:52:07;;;;;;;42.23;25.60;;;;;;;;;;5021484;28;20185;-80
2022/12/02 06:54:34;;;;;;;42.23;24.83;;;;;;;;;;5003618;28;20189;-80
2022/12/02 06:57:01;;;;;;;42.40;25.83;;;;;;;;;;5010668;28;20188;-80
2022/12/02 06:59:27;;;;;;;46.17;25.97;;;;;;;;;;5011944;28;20204;-80
2022/12/02 07:01:55;;;;;;;41.97;25.17;;;;;;;;;;5014934;28;20185;-80
2022/12/02 07:04:29;;;;;;;44.80;25.90;;;;;;;;;;5016520;28;20177;-80
2022/12/02 07:06:58;;;;;;;42.80;25.03;;;;;;;;;;5034275;28;20176;-80
2022/12/02 07:09:44;;;;;;;42.83;25.07;;;;;;;;;;5034136;28;20177;-80
2022/12/02 07:12:23;;;;;;;43.30;25.07;;;;;;;;;;5041709;28;20184;-80
2022/12/02 07:14:56;;;;;;;48.13;26.13;;;;;;;;;;5010147;28;20207;-80
2022/12/02 07:17:22;;;;;;;46.03;25.70;;;;;;;;;;4998540;28;20183;-80
2022/12/02 07:19:54;;;;;;;40.83;25.03;;;;;;;;;;5014811;28;20212;-79
2022/12/02 07:22:22;;;;;;;45.60;25.77;;;;;;;;;;5033592;28;20185;-79
2022/12/02 07:24:55;;;;;;;43.97;25.77;;;;;;;;;;5014351;28;20248;-79
2022/12/02 07:27:26;;;;;;;42.90;25.77;;;;;;;;;;5014343;28;20188;-79
2022/12/02 07:29:52;;;;;;;45.47;24.70;;;;;;;;;;5008277;28;20208;-80
2022/12/02 07:32:19;;;;;;;40.83;24.03;;;;;;;;;;5027911;28;20192;-79
2022/12/02 07:34:45;;;;;;;42.20;23.73;;;;;;;;;;5027266;28;20291;-84
2022/12/02 07:37:11;;;;;;;46.90;24.47;;;;;;;;;;4999016;28;20247;-84
2022/12/02 07:39:37;;;;;;;44.50;24.07;;;;;;;;;;5016176;28;20212;-84
2022/12/02 07:42:03;;;;;;;42.97;24.10;;;;;;;;;;4994783;28;20366;-84
2022/12/02 07:44:29;;;;;;;42.87;24.07;;;;;;;;;;5009019;28;20258;-83
2022/12/02 07:46:55;;;;;;;44.93;24.83;;;;;;;;;;4980846;28;20276;-83
2022/12/02 07:49:21;;;;;;;43.97;23.83;;;;;;;;;;4976208;28;20194;-82
2022/12/02 07:51:47;;;;;;;48.35;29.27;;;;;;;;;;4974373;28;20428;-79
2022/12/02 07:54:13;;;;;;;47.27;24.93;;;;;;;;;;5001633;28;20201;-79
2022/12/02 07:56:39;;;;;;;49.57;25.60;;;;;;;;;;4997461;28;20194;-79
2022/12/02 07:59:05;;;;;;;44.13;25.00;;;;;;;;;;4986240;28;20213;-79
2022/12/02 08:01:31;;;;;;;47.03;25.17;;;;;;;;;;5000331;28;20192;-84
2022/12/02 08:03:57;;;;;;;49.57;25.10;;;;;;;;;;5000744;28;20178;-83
2022/12/02 08:06:23;;;;;;;45.87;24.20;;;;;;;;;;4980713;28;20177;-79
2022/12/02 08:08:49;;;;;;;48.80;25.37;;;;;;;;;;4997895;28;20276;-79
2022/12/02 08:11:15;;;;;;;48.27;25.27;;;;;;;;;;4990803;28;20193;-78
2022/12/02 08:13:41;;;;;;;52.90;27.33;;;;;;;;;;5012596;28;20204;-78
2022/12/02 08:16:10;;;;;;;52.67;26.47;;;;;;;;;;4997385;28;20316;-78
2022/12/02 08:18:35;;;;;;;49.20;26.17;;;;;;;;;;4999842;28;20298;-78
2022/12/02 08:21:02;;;;;;;54.93;26.60;;;;;;;;;;5016443;28;20184;-78
2022/12/02 08:23:28;;;;;;;52.83;26.87;;;;;;;;;;5019800;28;20177;-78
2022/12/02 08:25:54;;;;;;;52.47;26.23;;;;;;;;;;4988814;28;20182;-78
2022/12/02 08:28:20;;;;;;;58.63;27.93;;;;;;;;;;4996587;28;20190;-84
2022/12/02 08:30:46;;;;;;;49.93;25.50;;;;;;;;;;4978411;28;20188;-83
2022/12/02 08:33:12;;;;;;;55.20;27.77;;;;;;;;;;4997063;28;20213;-79
2022/12/02 08:35:38;;;;;;;53.53;27.43;;;;;;;;;;4979942;28;20189;-79
2022/12/02 08:38:05;;;;;;;59.57;28.37;;;;;;;;;;4979891;28;20237;-79
2022/12/02 08:40:31;;;;;;;52.93;27.00;;;;;;;;;;4979731;28;20220;-79
2022/12/02 08:42:57;;;;;;;54.90;27.57;;;;;;;;;;5014488;28;20233;-79
2022/12/02 08:45:23;;;;;;;55.10;27.53;;;;;;;;;;5016581;28;20176;-79
2022/12/02 08:47:49;;;;;;;53.27;27.23;;;;;;;;;;5018666;28;20180;-79
2022/12/02 08:50:15;;;;;;;57.83;28.80;;;;;;;;;;5018725;28;20187;-79
2022/12/02 08:52:41;;;;;;;55.70;28.47;;;;;;;;;;5018979;28;20172;-79
2022/12/02 08:55:07;;;;;;;54.53;28.10;;;;;;;;;;5018535;28;20192;-79
2022/12/02 08:57:33;;;;;;;58.37;27.67;;;;;;;;;;5018712;28;20177;-79
2022/12/02 08:59:59;;;;;;;54.63;27.27;;;;;;;;;;5014471;28;20189;-80
2022/12/02 09:02:25;;;;;;;54.53;27.53;;;;;;;;;;5018672;28;20188;-80
2022/12/02 09:04:51;;;;;;;58.67;28.40;;;;;;;;;;5018375;28;20185;-80
2022/12/02 09:07:17;;;;;;;58.23;28.63;;;;;;;;;;5018485;28;20215;-80
2022/12/02 09:09:45;;;;;;;52.17;27.40;;;;;;;;;;5017940;28;20181;-80
2022/12/02 09:12:11;;;;;;;63.50;28.87;;;;;;;;;;5018770;28;20176;-80
2022/12/02 09:14:37;;;;;;;53.87;26.70;;;;;;;;;;5018302;28;20187;-78
2022/12/02 09:17:03;;;;;;;57.50;26.77;;;;;;;;;;5017253;28;20184;-78
2022/12/02 09:19:29;;;;;;;51.67;26.60;;;;;;;;;;5018127;28;20236;-78
2022/12/02 09:21:55;;;;;;;55.03;26.70;;;;;;;;;;5018092;28;20262;-77
2022/12/02 09:24:22;;;;;;;57.40;26.80;;;;;;;;;;5018075;28;20184;-78
2022/12/02 09:26:48;;;;;;;53.13;27.07;;;;;;;;;;5018266;28;20177;-78
2022/12/02 09:29:14;;;;;;;54.80;26.13;;;;;;;;;;5018030;28;20185;-78
2022/12/02 09:31:40;;;;;;;49.53;25.10;;;;;;;;;;5018297;28;20176;-79
2022/12/02 09:34:06;;;;;;;51.47;26.17;;;;;;;;;;5013012;28;20200;-80
2022/12/02 09:36:32;;;;;;;52.87;26.87;;;;;;;;;;5018395;28;20221;-80
2022/12/02 09:38:58;;;;;;;53.03;26.80;;;;;;;;;;5017789;28;20212;-80
2022/12/02 09:41:24;;;;;;;53.30;26.67;;;;;;;;;;5017697;28;20279;-80
2022/12/02 09:43:50;;;;;;;48.83;25.03;;;;;;;;;;5017592;28;20275;-83
2022/12/02 09:46:16;;;;;;;48.50;24.77;;;;;;;;;;5035396;28;20287;-83
2022/12/02 09:48:42;;;;;;;50.23;26.13;;;;;;;;;;5017968;28;20298;-83
2022/12/02 09:51:09;;;;;;;49.53;26.17;;;;;;;;;;5018181;28;20196;-84
2022/12/02 09:53:37;;;;;;;50.23;27.13;;;;;;;;;;5018631;28;20242;-84
2022/12/02 09:56:04;;;;;;;48.00;25.63;;;;;;;;;;5017475;28;20184;-83
2022/12/02 09:58:30;;;;;;;53.07;25.93;;;;;;;;;;5014875;28;20216;-83
2022/12/02 10:00:57;;;;;;;51.00;25.13;;;;;;;;;;5000792;28;20177;-84
2022/12/02 10:03:27;;;;;;;45.77;25.73;;;;;;;;;;5034913;28;20183;-83
2022/12/02 10:05:54;;;;;;;49.10;24.33;;;;;;;;;;5017259;28;20187;-78
2022/12/02 10:08:22;;;;;;;45.77;24.30;;;;;;;;;;5017069;28;20208;-78
2022/12/02 10:10:49;;;;;;;45.53;24.30;;;;;;;;;;5017177;28;20181;-78
2022/12/02 10:13:16;;;;;;;46.13;24.43;;;;;;;;;;5034786;28;20210;-78
2022/12/02 10:15:43;;;;;;;44.50;24.33;;;;;;;;;;5034638;28;20172;-78
2022/12/02 10:18:26;;;;;;;43.90;23.60;;;;;;;;;;5017220;28;20210;-78
2022/12/02 10:20:52;;;;;;;47.83;24.07;;;;;;;;;;5033966;28;20208;-78
2022/12/02 10:23:20;;;;;;;46.90;23.73;;;;;;;;;;5016511;28;20176;-79
2022/12/02 10:25:47;;;;;;;43.50;23.13;;;;;;;;;;5034610;28;20256;-79
2022/12/02 10:28:20;;;;;;;43.10;23.33;;;;;;;;;;5016769;28;20188;-79
2022/12/02 10:30:50;;;;;;;47.73;24.07;;;;;;;;;;5016099;28;20203;-79
2022/12/02 10:33:16;;;;;;;43.23;23.27;;;;;;;;;;5014339;28;20235;-79
2022/12/02 10:35:44;;;;;;;46.27;23.67;;;;;;;;;;5013468;28;20212;-79
2022/12/02 10:38:37;;;;;;;44.13;22.87;;;;;;;;;;5013369;28;20215;-79
2022/12/02 10:41:23;;;;;;;41.43;21.43;;;;;;;;;;4994926;28;20192;-79
2022/12/02 10:43:52;;;;;;;41.47;22.23;;;;;;;;;;5013685;28;20181;-79
2022/12/02 10:46:19;;;;;;;47.37;21.23;;;;;;;;;;5014406;28;20200;-79
2022/12/02 10:48:46;;;;;;;46.17;22.33;;;;;;;;;;4998514;28;20186;-80
2022/12/02 10:51:16;;;;;;;47.03;22.33;;;;;;;;;;4980673;28;20181;-80
2022/12/02 10:53:43;;;;;;;53.53;23.93;;;;;;;;;;5013276;28;20212;-80
2022/12/02 10:56:20;;;;;;;40.43;21.43;;;;;;;;;;5013545;28;20177;-83
2022/12/02 10:58:49;;;;;;;38.40;20.43;;;;;;;;;;5013134;28;20201;-83
2022/12/02 11:01:15;;;;;;;50.90;22.53;;;;;;;;;;5014369;28;20248;-84
2022/12/02 11:03:41;;;;;;;46.47;22.20;;;;;;;;;;5013261;28;20173;-85
2022/12/02 11:06:15;;;;;;;41.07;22.10;;;;;;;;;;4993544;28;20195;-83
2022/12/02 11:08:42;;;;;;;48.83;21.87;;;;;;;;;;5016474;28;20279;-78
2022/12/02 11:11:16;;;;;;;51.10;21.87;;;;;;;;;;5016518;28;20181;-77
2022/12/02 11:13:48;;;;;;;44.47;21.67;;;;;;;;;;5033758;28;20180;-78
2022/12/02 11:16:27;;;;;;;46.40;21.57;;;;;;;;;;5016226;28;20180;-78
2022/12/02 11:18:56;;;;;;;43.17;21.93;;;;;;;;;;5016120;28;20220;-78
2022/12/02 11:21:28;;;;;;;46.10;21.67;;;;;;;;;;5033664;28;20238;-78
2022/12/02 11:24:13;;;;;;;48.47;23.07;;;;;;;;;;5016184;28;20180;-78
2022/12/02 11:26:58;;;;;;;49.17;21.73;;;;;;;;;;5016176;28;20176;-78
2022/12/02 11:29:25;;;;;;;50.37;22.93;;;;;;;;;;5033599;28;20184;-78
2022/12/02 11:32:03;;;;;;;52.40;24.33;;;;;;;;;;5015955;28;20284;-78
2022/12/02 11:34:40;;;;;;;54.83;24.33;;;;;;;;;;5037606;28;20172;-78
2022/12/02 11:37:25;;;;;;;51.07;22.80;;;;;;;;;;5020059;28;20229;-78
2022/12/02 11:39:52;;;;;;;52.30;23.13;;;;;;;;;;5019880;28;20208;-78
2022/12/02 11:42:19;;;;;;;54.90;23.87;;;;;;;;;;5015977;23;20271;-83
2022/12/02 11:44:45;;;;;;;49.30;22.50;;;;;;;;;;5000548;28;20181;-80
2022/12/02 11:47:31;;;;;;;51.40;22.80;;;;;;;;;;5000275;28;20181;-79
2022/12/02 11:50:17;;;;;;;51.90;23.37;;;;;;;;;;5000275;28;20241;-79
2022/12/02 11:52:48;;;;;;;44.60;22.10;;;;;;;;;;4999290;28;20173;-79
2022/12/02 11:55:17;;;;;;;51.20;23.73;;;;;;;;;;5000132;28;20181;-79
2022/12/02 11:57:45;;;;;;;47.90;23.47;;;;;;;;;;4999876;28;20204;-79
2022/12/02 12:00:23;;;;;;;49.13;23.43;;;;;;;;;;4999968;28;20275;-79
2022/12/02 12:03:04;;;;;;;48.23;23.00;;;;;;;;;;4993332;28;20195;-80
2022/12/02 12:05:30;;;;;;;48.23;22.37;;;;;;;;;;5009056;28;20177;-80
2022/12/02 12:07:56;;;;;;;43.67;21.57;;;;;;;;;;5016673;28;20215;-79
2022/12/02 12:10:26;;;;;;;46.13;21.63;;;;;;;;;;4983591;28;20268;-79
2022/12/02 12:13:11;;;;;;;41.57;21.70;;;;;;;;;;5017422;28;20228;-80
2022/12/02 12:16:00;;;;;;;43.17;21.13;;;;;;;;;;5017401;28;20188;-80
2022/12/02 12:18:44;;;;;;;42.13;20.77;;;;;;;;;;5009176;28;20221;-80
2022/12/02 12:21:12;;;;;;;41.90;20.70;;;;;;;;;;5006897;28;20205;-80
2022/12/02 12:23:39;;;;;;;39.73;20.53;;;;;;;;;;4997821;28;20228;-80
2022/12/02 12:26:06;;;;;;;40.57;19.37;;;;;;;;;;4997571;28;20181;-80
2022/12/02 12:28:34;;;;;;;44.03;20.27;;;;;;;;;;4980252;28;20174;-80
2022/12/02 12:31:01;;;;;;;38.37;19.80;;;;;;;;;;5003298;28;20181;-80
2022/12/02 12:33:27;;;;;;;37.80;18.83;;;;;;;;;;4998005;28;20186;-80
2022/12/02 12:35:54;;;;;;;38.43;18.63;;;;;;;;;;5004047;28;20181;-80
2022/12/02 12:38:23;;;;;;;31.90;18.07;;;;;;;;;;5017041;28;20208;-80
2022/12/02 12:40:49;;;;;;;42.27;19.53;;;;;;;;;;5016116;28;20180;-80
2022/12/02 12:43:15;;;;;;;40.33;19.40;;;;;;;;;;5016617;28;20220;-80
2022/12/02 12:45:41;;;;;;;36.93;19.37;;;;;;;;;;5015860;28;20180;-80
2022/12/02 12:48:08;;;;;;;36.43;18.77;;;;;;;;;;4990577;28;20192;-80
2022/12/02 12:50:34;;;;;;;34.43;17.47;;;;;;;;;;4999065;28;20189;-80
2022/12/02 12:53:00;;;;;;;33.87;17.33;;;;;;;;;;5015953;28;20208;-78
2022/12/02 12:55:26;;;;;;;34.13;17.60;;;;;;;;;;4998310;28;20212;-78
2022/12/02 12:57:52;;;;;;;28.07;16.17;;;;;;;;;;5015241;28;20181;-78
2022/12/02 13:00:18;;;;;;;32.20;15.97;;;;;;;;;;5015167;28;20177;-78
2022/12/02 13:02:44;;;;;;;33.60;16.70;;;;;;;;;;4998855;28;20288;-78
2022/12/02 13:05:10;;;;;;;28.37;15.47;;;;;;;;;;4998808;28;20181;-78
2022/12/02 13:07:36;;;;;;;30.07;16.20;;;;;;;;;;4999054;28;20189;-78
2022/12/02 13:10:03;;;;;;;30.10;15.83;;;;;;;;;;5014950;28;20268;-78
2022/12/02 13:12:29;;;;;;;30.00;16.60;;;;;;;;;;4998793;28;20219;-78
2022/12/02 13:14:55;;;;;;;33.57;17.10;;;;;;;;;;5015937;28;20208;-78
2022/12/02 13:17:21;;;;;;;33.87;16.47;;;;;;;;;;4999071;28;20209;-78
2022/12/02 13:19:47;;;;;;;32.37;16.17;;;;;;;;;;4998624;28;20259;-78
2022/12/02 13:22:13;;;;;;;31.40;17.00;;;;;;;;;;4998717;28;20182;-78
2022/12/02 13:24:39;;;;;;;32.23;15.77;;;;;;;;;;5014794;28;20193;-83
2022/12/02 13:27:05;;;;;;;31.43;16.13;;;;;;;;;;5011795;28;20193;-83
2022/12/02 13:29:31;;;;;;;36.30;17.40;;;;;;;;;;4990141;28;20199;-83
2022/12/02 13:31:57;;;;;;;37.40;17.77;;;;;;;;;;4981521;28;20185;-83
2022/12/02 13:34:23;;;;;;;35.47;17.77;;;;;;;;;;4975338;28;20194;-84
2022/12/02 13:36:49;;;;;;;34.77;16.80;;;;;;;;;;5010875;28;20280;-83
2022/12/02 13:39:15;;;;;;;34.63;17.53;;;;;;;;;;4981955;28;20303;-83
2022/12/02 13:41:41;;;;;;;35.60;18.58;;;;;;;;;;4997568;28;20478;-79
2022/12/02 13:44:07;;;;;;;32.20;17.87;;;;;;;;;;4994174;28;20186;-79
2022/12/02 13:46:33;;;;;;;31.67;17.53;;;;;;;;;;5004706;28;20185;-79
2022/12/02 13:48:59;;;;;;;33.23;18.07;;;;;;;;;;5015287;28;20239;-79
2022/12/02 13:51:25;;;;;;;31.97;18.20;;;;;;;;;;4996121;28;20188;-79
2022/12/02 13:53:51;;;;;;;33.10;18.30;;;;;;;;;;5013774;28;20260;-80
2022/12/02 13:56:17;;;;;;;32.77;17.97;;;;;;;;;;4998480;28;20194;-79
2022/12/02 13:58:43;;;;;;;30.47;17.93;;;;;;;;;;4998036;28;20213;-84
2022/12/02 14:01:09;;;;;;;43.30;23.17;;;;;;;;;;4981786;28;20177;-84
2022/12/02 14:03:35;;;;;;;38.67;23.00;;;;;;;;;;4997575;28;20185;-84
2022/12/02 14:06:03;;;;;;;52.23;30.37;;;;;;;;;;4998544;28;20259;-84
2022/12/02 14:08:29;;;;;;;53.43;31.17;;;;;;;;;;4997946;28;20181;-84
2022/12/02 14:10:55;;;;;;;54.17;32.40;;;;;;;;;;4997878;28;20261;-84
2022/12/02 14:13:21;;;;;;;53.63;33.23;;;;;;;;;;4997784;28;20177;-83
2022/12/02 14:15:47;;;;;;;53.53;33.10;;;;;;;;;;4978224;28;20194;-79
2022/12/02 14:18:13;;;;;;;50.07;33.00;;;;;;;;;;4995779;28;20202;-79
2022/12/02 14:20:39;;;;;;;50.50;31.70;;;;;;;;;;4978174;28;20192;-79
2022/12/02 14:23:07;;;;;;;52.33;32.63;;;;;;;;;;4978276;28;20277;-78
2022/12/02 14:25:33;;;;;;;57.13;34.03;;;;;;;;;;4996282;28;20194;-78